createdAt,value
2022-12-14T00:01:16.255Z,2.25
2022-12-14T00:03:42.818Z,2.30
2022-12-14T00:06:29.125Z,3.17
2022-12-14T00:08:59.807Z,3.83
2022-12-14T00:11:26.337Z,4.05
2022-12-14T00:13:57.187Z,3.95
2022-12-14T00:16:24.086Z,2.00
2022-12-14T00:18:52.444Z,2.20
2022-12-14T00:21:19.005Z,2.50
2022-12-14T00:23:46.169Z,2.25
2022-12-14T00:26:27.269Z,3.30
2022-12-14T00:28:54.829Z,2.92
2022-12-14T00:31:21.855Z,2.25
2022-12-14T00:33:48.571Z,3.25
2022-12-14T00:36:15.062Z,3.03
2022-12-14T00:38:41.549Z,2.75
2022-12-14T00:41:08.101Z,2.22
2022-12-14T00:43:34.860Z,2.50
2022-12-14T00:46:01.373Z,2.55
2022-12-14T00:48:28.125Z,2.30
2022-12-14T00:50:55.177Z,1.83
2022-12-14T00:53:21.814Z,2.20
2022-12-14T00:55:49.677Z,2.30
2022-12-14T00:58:17.660Z,2.45
2022-12-14T01:00:47.243Z,2.63
2022-12-14T01:03:13.864Z,2.00
2022-12-14T01:05:40.609Z,2.17
2022-12-14T01:08:07.117Z,2.80
2022-12-14T01:10:33.678Z,1.85
2022-12-14T01:13:00.141Z,2.13
2022-12-14T01:15:26.595Z,2.78
2022-12-14T01:17:53.069Z,1.77
2022-12-14T01:20:19.619Z,2.15
2022-12-14T01:22:46.146Z,4.07
2022-12-14T01:25:12.729Z,1.90
2022-12-14T01:27:39.175Z,2.03
2022-12-14T01:30:05.990Z,2.10
2022-12-14T01:32:32.462Z,2.17
2022-12-14T01:34:58.942Z,2.22
2022-12-14T01:37:25.415Z,2.00
2022-12-14T01:39:51.883Z,2.88
2022-12-14T01:42:18.340Z,1.92
2022-12-14T01:44:44.678Z,2.20
2022-12-14T01:47:50.223Z,2.05
2022-12-14T01:50:26.717Z,2.30
2022-12-14T01:52:54.968Z,1.85
2022-12-14T01:55:27.529Z,1.85
2022-12-14T01:57:59.226Z,2.20
2022-12-14T02:00:26.094Z,2.10
2022-12-14T02:03:10.447Z,2.10
2022-12-14T02:08:03.973Z,2.00
2022-12-14T02:10:30.466Z,1.83
2022-12-14T02:13:10.151Z,2.03
2022-12-14T02:15:37.181Z,2.38
2022-12-14T02:18:03.667Z,2.17
2022-12-14T02:20:35.773Z,2.10
2022-12-14T02:23:17.682Z,1.83
2022-12-14T02:25:59.297Z,1.70
2022-12-14T02:28:44.480Z,1.98
2022-12-14T02:31:33.281Z,1.80
2022-12-14T02:34:11.236Z,1.95
2022-12-14T02:36:42.213Z,2.35
2022-12-14T02:39:34.580Z,1.70
2022-12-14T02:42:14.710Z,2.63
2022-12-14T02:44:55.239Z,1.55
2022-12-14T02:47:28.043Z,2.15
2022-12-14T02:50:14.646Z,1.60
2022-12-14T02:53:38.675Z,1.75
2022-12-14T02:56:07.523Z,3.45
2022-12-14T02:58:41.426Z,1.80
2022-12-14T03:01:12.725Z,1.98
2022-12-14T03:03:39.449Z,1.92
2022-12-14T03:06:25.860Z,1.70
2022-12-14T03:09:03.536Z,1.67
2022-12-14T03:11:50.060Z,1.80
2022-12-14T03:14:23.432Z,1.60
2022-12-14T03:16:50.444Z,1.92
2022-12-14T03:19:22.924Z,1.65
2022-12-14T03:21:58.502Z,1.50
2022-12-14T03:24:37.461Z,1.65
2022-12-14T03:27:11.657Z,1.60
2022-12-14T03:29:40.526Z,2.05
2022-12-14T03:32:18.942Z,1.63
2022-12-14T03:34:51.508Z,1.30
2022-12-14T03:37:22.349Z,1.33
2022-12-14T03:39:48.809Z,1.52
2022-12-14T03:42:22.782Z,1.33
2022-12-14T03:44:57.142Z,1.60
2022-12-14T03:47:48.503Z,1.88
2022-12-14T03:50:21.353Z,1.45
2022-12-14T03:52:59.055Z,1.65
2022-12-14T03:55:53.502Z,1.50
2022-12-14T03:58:36.613Z,1.27
2022-12-14T04:01:17.487Z,1.42
2022-12-14T04:03:52.735Z,1.80
2022-12-14T04:06:27.529Z,1.40
2022-12-14T04:09:03.162Z,1.30
2022-12-14T04:11:52.271Z,1.50
2022-12-14T04:14:41.056Z,1.55
2022-12-14T04:17:28.629Z,1.50
2022-12-14T04:19:59.719Z,1.85
2022-12-14T04:22:26.706Z,1.50
2022-12-14T04:25:23.045Z,1.33
2022-12-14T04:28:01.982Z,1.35
2022-12-14T04:30:28.661Z,1.40
2022-12-14T04:33:40.190Z,1.33
2022-12-14T04:36:07.216Z,1.60
2022-12-14T04:38:34.893Z,1.60
2022-12-14T04:41:04.078Z,1.27
2022-12-14T04:43:31.937Z,1.33
2022-12-14T04:46:02.054Z,1.55
2022-12-14T04:48:45.950Z,1.40
2022-12-14T04:51:13.647Z,1.23
2022-12-14T04:53:40.146Z,1.58
2022-12-14T04:56:10.435Z,1.60
2022-12-14T04:58:36.890Z,1.40
2022-12-14T05:01:30.861Z,1.38
2022-12-14T05:04:19.070Z,1.33
2022-12-14T05:07:11.110Z,1.40
2022-12-14T05:09:51.136Z,1.48
2022-12-14T05:12:29.585Z,1.65
2022-12-14T05:15:07.774Z,1.60
2022-12-14T05:17:36.309Z,1.60
2022-12-14T05:20:02.806Z,1.48
2022-12-14T05:22:29.249Z,1.20
2022-12-14T05:24:55.743Z,1.50
2022-12-14T05:27:22.671Z,1.33
2022-12-14T05:29:49.151Z,1.60
2022-12-14T05:32:15.597Z,1.23
2022-12-14T05:34:42.134Z,1.50
2022-12-14T05:37:14.586Z,1.30
2022-12-14T05:39:44.366Z,1.55
2022-12-14T05:42:10.819Z,1.70
2022-12-14T05:44:37.312Z,1.30
2022-12-14T05:47:03.798Z,1.30
2022-12-14T05:49:30.338Z,1.45
2022-12-14T05:51:56.785Z,1.58
2022-12-14T05:54:23.247Z,1.48
2022-12-14T05:56:49.717Z,2.50
2022-12-14T05:59:16.837Z,2.40
2022-12-14T06:01:43.681Z,2.05
2022-12-14T06:04:11.835Z,4.20
2022-12-14T06:06:38.312Z,3.70
2022-12-14T06:09:08.942Z,3.08
2022-12-14T06:11:39.430Z,3.67
2022-12-14T06:14:06.243Z,4.40
2022-12-14T06:16:32.708Z,6.03
2022-12-14T06:18:59.929Z,6.47
2022-12-14T06:21:34.234Z,3.75
2022-12-14T06:24:00.679Z,4.28
2022-12-14T06:26:27.452Z,7.47
2022-12-14T06:28:54.694Z,6.75
2022-12-14T06:31:29.328Z,6.43
2022-12-14T06:33:59.109Z,5.38
2022-12-14T06:36:27.079Z,6.22
2022-12-14T06:38:57.392Z,9.73
2022-12-14T06:41:24.208Z,7.22
2022-12-14T06:43:51.148Z,7.80
2022-12-14T06:46:19.398Z,5.65
2022-12-14T06:48:53.061Z,7.50
2022-12-14T06:51:20.094Z,6.13
2022-12-14T06:53:46.672Z,6.78
2022-12-14T06:56:14.850Z,9.95
2022-12-14T06:58:41.387Z,6.43
2022-12-14T07:01:19.162Z,6.13
2022-12-14T07:03:55.705Z,5.60
2022-12-14T07:06:22.810Z,4.78
2022-12-14T07:08:49.375Z,5.10
2022-12-14T07:11:16.093Z,8.57
2022-12-14T07:13:42.676Z,7.75
2022-12-14T07:16:13.956Z,5.30
2022-12-14T07:18:40.445Z,5.80
2022-12-14T07:21:11.624Z,7.05
2022-12-14T07:23:38.591Z,6.97
2022-12-14T07:26:06.193Z,7.53
2022-12-14T07:28:32.727Z,5.47
2022-12-14T07:30:59.451Z,7.80
2022-12-14T07:33:26.448Z,5.88
2022-12-14T07:36:00.725Z,7.25
2022-12-14T07:40:53.980Z,4.68
2022-12-14T07:43:20.454Z,5.38
2022-12-14T07:45:47.093Z,8.48
2022-12-14T07:48:13.549Z,2.78
2022-12-14T07:50:40.028Z,3.85
2022-12-14T07:53:07.013Z,6.30
2022-12-14T07:55:35.111Z,5.13
2022-12-14T07:58:02.176Z,5.82
2022-12-14T08:00:28.637Z,4.35
2022-12-14T08:02:55.356Z,7.18
2022-12-14T08:05:21.812Z,5.82
2022-12-14T08:07:48.251Z,10.10
2022-12-14T08:10:14.727Z,6.65
2022-12-14T08:12:41.167Z,5.45
2022-12-14T08:15:08.434Z,5.60
2022-12-14T08:17:34.891Z,6.32
2022-12-14T08:20:01.349Z,7.90
2022-12-14T08:22:27.844Z,5.63
2022-12-14T08:24:54.293Z,4.72
2022-12-14T08:27:21.798Z,6.57
2022-12-14T08:29:48.274Z,7.63
2022-12-14T08:32:14.724Z,8.07
2022-12-14T08:34:41.210Z,5.63
2022-12-14T08:37:07.663Z,5.53
2022-12-14T08:39:34.138Z,4.95
2022-12-14T08:42:00.636Z,5.00
2022-12-14T08:44:27.130Z,3.55
2022-12-14T08:46:53.639Z,5.85
2022-12-14T08:49:20.450Z,5.75
2022-12-14T08:51:46.990Z,5.35
2022-12-14T08:54:13.489Z,8.38
2022-12-14T08:56:40.154Z,7.47
2022-12-14T08:59:06.609Z,3.45
2022-12-14T09:01:34.767Z,3.03
2022-12-14T09:04:03.053Z,5.05
2022-12-14T09:06:29.520Z,5.95
2022-12-14T09:08:55.984Z,5.57
2022-12-14T09:11:22.624Z,4.25
2022-12-14T09:13:49.145Z,3.78
2022-12-14T09:16:17.686Z,6.03
2022-12-14T09:18:44.862Z,4.28
2022-12-14T09:21:11.343Z,5.43
2022-12-14T09:23:39.850Z,4.65
2022-12-14T09:26:15.425Z,4.30
2022-12-14T09:28:42.741Z,2.60
2022-12-14T09:31:13.608Z,3.67
2022-12-14T09:33:40.618Z,3.75
2022-12-14T09:36:08.673Z,2.72
2022-12-14T09:38:36.127Z,4.07
2022-12-14T09:41:07.822Z,4.65
2022-12-14T09:43:39.216Z,3.40
2022-12-14T09:46:24.319Z,3.72
2022-12-14T09:48:52.012Z,2.50
2022-12-14T09:51:20.097Z,2.53
2022-12-14T09:53:47.830Z,3.55
2022-12-14T09:56:17.313Z,1.98
2022-12-14T09:58:55.888Z,3.30
2022-12-14T10:01:22.473Z,2.33
2022-12-14T10:03:55.261Z,4.60
2022-12-14T10:06:35.371Z,2.45
2022-12-14T10:09:33.301Z,2.63
2022-12-14T10:12:34.348Z,2.15
2022-12-14T10:15:07.514Z,2.95
2022-12-14T10:17:44.667Z,3.13
2022-12-14T10:20:24.922Z,5.10
2022-12-14T10:22:52.627Z,2.45
2022-12-14T10:25:27.388Z,3.13
2022-12-14T10:28:15.758Z,2.65
2022-12-14T10:30:42.884Z,2.50
2022-12-14T10:33:22.215Z,2.40
2022-12-14T10:35:52.828Z,2.33
2022-12-14T10:38:26.499Z,2.47
2022-12-14T10:43:49.874Z,5.05
2022-12-14T10:46:35.887Z,15.35
2022-12-14T10:49:08.998Z,3.28
2022-12-14T10:51:43.998Z,4.05
2022-12-14T10:54:22.566Z,4.72
2022-12-14T10:56:50.009Z,5.50
2022-12-14T10:59:39.852Z,3.75
2022-12-14T11:02:19.093Z,7.18
2022-12-14T11:04:56.058Z,4.30
2022-12-14T11:07:24.756Z,3.50
2022-12-14T11:09:51.314Z,6.07
2022-12-14T11:12:19.491Z,2.40
2022-12-14T11:15:03.049Z,3.22
2022-12-14T11:17:30.591Z,3.22
2022-12-14T11:20:14.957Z,3.00
2022-12-14T11:22:52.672Z,4.22
2022-12-14T11:25:31.258Z,3.35
2022-12-14T11:28:03.855Z,5.53
2022-12-14T11:30:30.479Z,2.33
2022-12-14T11:32:56.965Z,2.42
2022-12-14T11:35:23.422Z,2.92
2022-12-14T11:37:50.052Z,3.55
2022-12-14T11:40:36.040Z,4.50
2022-12-14T11:43:03.773Z,2.92
2022-12-14T11:45:32.247Z,4.70
2022-12-14T11:48:14.258Z,2.42
2022-12-14T11:50:44.550Z,2.92
2022-12-14T11:53:12.681Z,4.32
2022-12-14T11:55:41.028Z,3.47
2022-12-14T11:58:17.185Z,3.53
2022-12-14T12:00:47.386Z,7.97
2022-12-14T12:03:27.997Z,3.95
2022-12-14T12:05:54.535Z,2.80
2022-12-14T12:08:25.601Z,3.50
2022-12-14T12:11:03.116Z,4.22
2022-12-14T12:13:37.001Z,3.05
2022-12-14T12:16:14.804Z,3.80
2022-12-14T12:18:46.620Z,2.00
2022-12-14T12:21:22.454Z,3.53
2022-12-14T12:23:56.127Z,2.28
2022-12-14T12:26:25.560Z,3.33
2022-12-14T12:29:01.334Z,4.38
2022-12-14T12:31:38.492Z,2.63
2022-12-14T12:34:11.905Z,3.78
2022-12-14T12:36:39.614Z,2.45
2022-12-14T12:39:17.032Z,3.28
2022-12-14T12:42:06.727Z,2.78
2022-12-14T12:44:56.333Z,2.05
2022-12-14T12:47:46.647Z,3.38
2022-12-14T12:50:17.296Z,2.25
2022-12-14T12:53:05.172Z,4.50
2022-12-14T12:55:36.802Z,1.83
2022-12-14T12:58:03.387Z,4.28
2022-12-14T13:00:30.484Z,2.17
2022-12-14T13:03:09.543Z,1.90
2022-12-14T13:05:51.375Z,2.10
2022-12-14T13:08:25.276Z,2.35
2022-12-14T13:13:38.434Z,2.05
2022-12-14T13:16:15.571Z,2.03
2022-12-14T13:19:13.220Z,2.13
2022-12-14T13:21:35.640Z,3.65
2022-12-14T13:24:02.662Z,1.90
2022-12-14T13:26:59.137Z,1.75
2022-12-14T13:29:47.400Z,2.67
2022-12-14T13:32:47.423Z,1.92
2022-12-14T13:35:36.625Z,1.98
2022-12-14T13:38:33.190Z,3.42
2022-12-14T13:41:22.126Z,2.72
2022-12-14T13:44:10.756Z,3.45
2022-12-14T13:46:37.336Z,1.90
2022-12-14T13:49:07.065Z,1.90
2022-12-14T13:51:38.052Z,2.05
2022-12-14T13:54:06.793Z,1.60
2022-12-14T13:56:35.158Z,1.92
2022-12-14T13:59:03.638Z,1.90
2022-12-14T14:01:48.291Z,1.55
2022-12-14T14:04:18.408Z,2.08
2022-12-14T14:06:48.697Z,1.30
2022-12-14T14:09:33.441Z,2.13
2022-12-14T14:12:21.721Z,1.50
2022-12-14T14:14:52.085Z,1.42
2022-12-14T14:17:25.494Z,1.70
2022-12-14T14:19:56.027Z,1.27
2022-12-14T14:22:25.714Z,1.73
2022-12-14T14:25:12.873Z,1.95
2022-12-14T14:27:50.254Z,1.52
2022-12-14T14:30:52.234Z,1.50
2022-12-14T14:33:47.117Z,1.48
2022-12-14T14:36:35.895Z,1.40
2022-12-14T14:39:24.540Z,1.70
2022-12-14T14:41:53.441Z,3.63
2022-12-14T14:44:21.590Z,1.85
2022-12-14T14:46:48.504Z,2.17
2022-12-14T14:49:36.145Z,2.22
2022-12-14T14:52:39.789Z,1.40
2022-12-14T14:55:53.147Z,2.28
2022-12-14T14:58:25.974Z,1.65
2022-12-14T15:01:17.737Z,1.83
2022-12-14T15:04:00.671Z,2.13
2022-12-14T15:06:31.355Z,1.60
2022-12-14T15:09:09.618Z,1.60
2022-12-14T15:11:46.332Z,1.83
2022-12-14T15:14:15.128Z,1.55
2022-12-14T15:16:43.764Z,2.20
2022-12-14T15:19:33.476Z,2.30
2022-12-14T15:22:02.697Z,2.00
2022-12-14T15:24:29.157Z,3.13
2022-12-14T15:26:55.671Z,1.75
2022-12-14T15:29:27.753Z,2.42
2022-12-14T15:31:59.659Z,1.73
2022-12-14T15:34:26.633Z,1.60
2022-12-14T15:36:53.142Z,2.20
2022-12-14T15:39:33.585Z,1.92
2022-12-14T15:42:02.763Z,2.08
2022-12-14T15:44:29.286Z,1.60
2022-12-14T15:46:55.816Z,1.50
2022-12-14T15:49:22.962Z,3.25
2022-12-14T15:51:49.424Z,3.15
2022-12-14T15:54:18.683Z,4.70
2022-12-14T15:56:46.326Z,6.05
2022-12-14T15:59:17.799Z,3.55
2022-12-14T16:01:53.663Z,5.78
2022-12-14T16:04:22.819Z,9.02
2022-12-14T16:06:56.960Z,4.00
2022-12-14T16:09:28.563Z,5.75
2022-12-14T16:11:56.371Z,9.98
2022-12-14T16:14:29.156Z,2.65
2022-12-14T16:16:55.952Z,4.20
2022-12-14T16:19:28.776Z,7.55
2022-12-14T16:22:10.093Z,6.35
2022-12-14T16:24:37.831Z,4.43
2022-12-14T16:27:04.955Z,5.82
2022-12-14T16:29:32.628Z,5.68
2022-12-14T16:32:03.366Z,3.10
2022-12-14T16:34:29.946Z,4.85
2022-12-14T16:39:50.269Z,3.27
2022-12-14T16:42:24.859Z,7.25
2022-12-14T16:44:53.928Z,3.72
2022-12-14T16:47:35.575Z,4.07
2022-12-14T16:50:02.089Z,6.07
2022-12-14T16:52:33.212Z,5.05
2022-12-14T16:55:08.683Z,3.40
2022-12-14T16:57:35.615Z,5.50
2022-12-14T17:00:04.046Z,2.72
2022-12-14T17:02:33.343Z,3.55
2022-12-14T17:05:03.294Z,5.82
2022-12-14T17:07:30.555Z,2.38
2022-12-14T17:09:57.107Z,4.18
2022-12-14T17:12:24.502Z,4.07
2022-12-14T17:14:51.167Z,2.40
2022-12-14T17:17:37.857Z,2.63
2022-12-14T17:20:08.001Z,1.95
2022-12-14T17:22:37.046Z,3.95
2022-12-14T17:25:03.608Z,2.83
2022-12-14T17:27:30.425Z,6.63
2022-12-14T17:29:57.403Z,2.15
2022-12-14T17:32:25.853Z,5.22
2022-12-14T17:34:52.326Z,3.42
2022-12-14T17:37:20.736Z,2.00
2022-12-14T17:39:47.479Z,3.00
2022-12-14T17:42:15.548Z,5.22
2022-12-14T17:44:42.807Z,4.88
2022-12-14T17:47:15.653Z,4.60
2022-12-14T17:49:42.971Z,2.35
2022-12-14T17:52:17.938Z,4.43
2022-12-14T17:54:44.451Z,3.80
2022-12-14T17:57:18.327Z,5.38
2022-12-14T17:59:47.637Z,2.97
2022-12-14T18:02:34.825Z,4.85
2022-12-14T18:05:01.443Z,4.28
2022-12-14T18:07:27.938Z,4.43
2022-12-14T18:09:54.491Z,3.30
2022-12-14T18:12:23.542Z,2.60
2022-12-14T18:14:50.747Z,2.92
2022-12-14T18:17:18.665Z,4.20
2022-12-14T18:19:45.189Z,3.78
2022-12-14T18:22:14.605Z,2.63
2022-12-14T18:24:41.187Z,3.20
2022-12-14T18:27:07.648Z,3.55
2022-12-14T18:29:34.108Z,3.05
2022-12-14T18:32:00.705Z,3.50
2022-12-14T18:34:27.288Z,4.25
2022-12-14T18:36:56.267Z,2.42
2022-12-14T18:39:22.730Z,4.03
2022-12-14T18:41:49.202Z,3.30
2022-12-14T18:44:16.459Z,3.05
2022-12-14T18:46:42.974Z,2.88
2022-12-14T18:49:16.093Z,2.75
2022-12-14T18:51:42.591Z,5.82
2022-12-14T18:54:09.313Z,3.75
2022-12-14T18:56:35.774Z,3.78
2022-12-14T18:59:02.273Z,3.33
2022-12-14T19:01:28.902Z,5.60
2022-12-14T19:03:55.476Z,3.42
2022-12-14T19:09:09.316Z,7.88
2022-12-14T19:11:38.716Z,8.68
2022-12-14T19:14:05.210Z,5.97
2022-12-14T19:16:31.791Z,6.95
2022-12-14T19:18:58.435Z,5.85
2022-12-14T19:21:29.332Z,9.25
2022-12-14T19:23:55.985Z,7.45
2022-12-14T19:26:22.665Z,8.25
2022-12-14T19:28:49.173Z,7.90
2022-12-14T19:31:15.761Z,5.70
2022-12-14T19:33:42.292Z,7.90
2022-12-14T19:36:09.489Z,6.80
2022-12-14T19:38:36.239Z,4.55
2022-12-14T19:41:06.442Z,4.55
2022-12-14T19:43:33.883Z,6.22
2022-12-14T19:46:01.190Z,5.55
2022-12-14T19:48:27.839Z,10.90
2022-12-14T19:50:54.470Z,8.70
2022-12-14T19:53:23.764Z,6.50
2022-12-14T19:55:52.655Z,9.30
2022-12-14T19:58:21.810Z,6.78
2022-12-14T20:00:49.658Z,7.03
2022-12-14T20:03:16.444Z,10.32
2022-12-14T20:05:56.247Z,6.88
2022-12-14T20:08:22.898Z,8.20
2022-12-14T20:10:49.530Z,8.80
2022-12-14T20:13:16.271Z,8.80
2022-12-14T20:15:50.843Z,7.18
2022-12-14T20:18:17.591Z,17.27
2022-12-14T20:20:44.148Z,7.15
2022-12-14T20:23:17.201Z,9.55
2022-12-14T20:25:43.667Z,9.38
2022-12-14T20:28:10.127Z,9.82
2022-12-14T20:30:42.543Z,9.13
2022-12-14T20:33:09.002Z,10.65
2022-12-14T20:35:35.463Z,10.98
2022-12-14T20:38:02.162Z,12.85
2022-12-14T20:40:30.431Z,12.52
2022-12-14T20:42:58.919Z,12.23
2022-12-14T20:45:25.451Z,10.57
2022-12-14T20:47:53.035Z,8.02
2022-12-14T20:50:20.028Z,7.53
2022-12-14T20:52:46.486Z,7.00
2022-12-14T20:55:15.830Z,5.82
2022-12-14T20:57:42.281Z,5.10
2022-12-14T21:00:12.179Z,9.10
2022-12-14T21:02:38.764Z,6.68
2022-12-14T21:05:05.776Z,5.00
2022-12-14T21:07:32.712Z,5.10
2022-12-14T21:09:59.178Z,7.07
2022-12-14T21:12:25.760Z,4.78
2022-12-14T21:14:53.688Z,4.63
2022-12-14T21:17:24.888Z,5.00
2022-12-14T21:19:51.766Z,5.63
2022-12-14T21:22:20.269Z,4.75
2022-12-14T21:25:04.901Z,6.18
2022-12-14T21:27:32.952Z,5.65
2022-12-14T21:30:00.339Z,4.47
2022-12-14T21:32:26.913Z,5.03
2022-12-14T21:34:53.378Z,4.78
2022-12-14T21:37:20.327Z,6.20
2022-12-14T21:39:52.331Z,8.27
2022-12-14T21:42:21.908Z,5.18
2022-12-14T21:44:49.459Z,4.78
2022-12-14T21:47:26.647Z,4.50
2022-12-14T21:49:53.120Z,8.38
2022-12-14T21:52:21.577Z,7.10
2022-12-14T21:54:48.031Z,7.18
2022-12-14T21:57:37.122Z,8.45
2022-12-14T22:00:07.011Z,6.93
2022-12-14T22:02:33.670Z,6.60
2022-12-14T22:05:00.317Z,10.00
2022-12-14T22:07:30.483Z,5.47
2022-12-14T22:09:56.937Z,4.95
2022-12-14T22:12:23.390Z,5.82
2022-12-14T22:14:49.962Z,6.13
2022-12-14T22:17:16.414Z,6.25
2022-12-14T22:19:42.884Z,6.20
2022-12-14T22:22:15.295Z,7.05
2022-12-14T22:24:41.977Z,5.88
2022-12-14T22:27:10.155Z,4.82
2022-12-14T22:29:36.606Z,4.20
2022-12-14T22:32:03.101Z,4.45
2022-12-14T22:34:29.577Z,4.45
2022-12-14T22:36:55.846Z,6.18
2022-12-14T22:39:22.292Z,5.80
2022-12-14T22:41:48.875Z,4.13
2022-12-14T22:44:15.560Z,5.03
2022-12-14T22:46:42.311Z,5.40
2022-12-14T22:49:08.891Z,7.15
2022-12-14T22:51:35.498Z,4.43
2022-12-14T22:54:02.432Z,4.45
2022-12-14T22:56:38.830Z,3.47
2022-12-14T22:59:11.584Z,4.30
2022-12-14T23:01:38.208Z,5.85
2022-12-14T23:04:05.656Z,4.53
2022-12-14T23:06:32.383Z,4.30
2022-12-14T23:09:17.344Z,4.40
2022-12-14T23:12:02.074Z,5.07
2022-12-14T23:14:46.863Z,4.53
2022-12-14T23:17:31.810Z,3.67
2022-12-14T23:20:16.926Z,4.10
2022-12-14T23:23:01.651Z,4.03
2022-12-14T23:25:46.506Z,7.63
2022-12-14T23:28:31.750Z,3.53
2022-12-14T23:31:17.674Z,4.50
2022-12-14T23:34:02.712Z,4.38
2022-12-14T23:36:47.516Z,5.70
2022-12-14T23:39:33.054Z,4.60
2022-12-14T23:42:17.765Z,7.18
2022-12-14T23:45:02.829Z,6.40
2022-12-14T23:47:49.354Z,4.10
2022-12-14T23:50:35.023Z,5.88
2022-12-14T23:53:24.565Z,7.82
2022-12-14T23:56:09.163Z,5.45
2022-12-14T23:58:53.920Z,7.07
